Time;durP1;ratioP1;P1;durP2;ratioP2;P2;SDS_P1;SDS_P2;PMS_P1;PMS_P2;Temp;Humidity;BMP_temperature;BMP_pressure;BME280_temperature;BME280_humidity;BME280_pressure;Samples;Min_cycle;Max_cycle;Signal;HPM_P1;HPM_P2
2023/04/17 00:02:04;;;;;;;64.85;44.13;;;;;;;7.12;100.00;102451.06;5053530;28;20044;-57
2023/04/17 00:04:30;;;;;;;63.30;44.38;;;;;;;7.14;100.00;102458.84;5052864;28;20228;-57
2023/04/17 00:06:56;;;;;;;70.07;44.53;;;;;;;7.14;100.00;102464.88;5052485;28;20469;-57
2023/04/17 00:09:21;;;;;;;68.47;44.25;;;;;;;7.15;100.00;102465.75;5052895;28;20028;-57
2023/04/17 00:11:47;;;;;;;66.20;45.13;;;;;;;7.14;100.00;102461.41;5053474;28;20456;-57
2023/04/17 00:14:12;;;;;;;68.25;46.42;;;;;;;7.14;100.00;102459.75;5052823;28;20063;-57
2023/04/17 00:16:37;;;;;;;64.95;44.15;;;;;;;7.13;100.00;102457.06;5053121;28;20020;-57
2023/04/17 00:19:03;;;;;;;64.38;42.75;;;;;;;7.06;100.00;102453.19;5053238;28;20033;-57
2023/04/17 00:21:31;;;;;;;66.32;43.78;;;;;;;6.96;100.00;102449.13;5051362;28;20354;-57
2023/04/17 00:23:56;;;;;;;68.07;43.97;;;;;;;6.85;100.00;102445.78;5052567;28;20032;-57
2023/04/17 00:26:22;;;;;;;73.43;47.47;;;;;;;6.78;100.00;102446.13;5051202;28;20032;-57
2023/04/17 00:28:49;;;;;;;75.13;47.40;;;;;;;6.73;100.00;102444.91;5053118;28;20111;-57
2023/04/17 00:31:14;;;;;;;73.82;48.88;;;;;;;6.72;100.00;102443.13;5053317;28;20024;-57
2023/04/17 00:33:40;;;;;;;78.32;49.15;;;;;;;6.69;100.00;102445.50;5051695;28;20174;-57
2023/04/17 00:36:06;;;;;;;83.45;49.78;;;;;;;6.70;100.00;102444.69;5053778;28;20029;-57
2023/04/17 00:38:31;;;;;;;72.40;48.47;;;;;;;6.69;100.00;102438.69;5052149;28;20478;-57
2023/04/17 00:40:56;;;;;;;74.50;49.08;;;;;;;6.71;100.00;102441.34;5052329;28;20033;-57
2023/04/17 00:43:21;;;;;;;73.93;49.08;;;;;;;6.75;100.00;102445.91;5052634;28;20412;-58
2023/04/17 00:45:47;;;;;;;79.40;49.10;;;;;;;6.77;100.00;102444.34;5052862;28;20029;-57
2023/04/17 00:48:14;;;;;;;76.28;48.50;;;;;;;6.80;100.00;102439.44;5051954;28;20020;-57
2023/04/17 00:50:40;;;;;;;73.43;48.40;;;;;;;6.83;100.00;102437.09;5052457;28;20376;-57
2023/04/17 00:53:06;;;;;;;74.43;48.67;;;;;;;6.84;100.00;102428.63;5052772;28;20028;-57
2023/04/17 00:55:33;;;;;;;75.85;49.70;;;;;;;6.87;100.00;102433.97;5051921;28;20036;-57
2023/04/17 00:57:59;;;;;;;70.40;45.97;;;;;;;6.88;100.00;102425.50;5052681;28;20491;-57
2023/04/17 01:00:24;;;;;;;77.40;49.78;;;;;;;6.89;100.00;102427.28;5052325;28;20107;-57
2023/04/17 01:02:50;;;;;;;78.03;48.85;;;;;;;6.90;100.00;102428.16;5051923;28;20061;-57
2023/04/17 01:05:16;;;;;;;74.40;48.00;;;;;;;6.92;100.00;102432.63;5052135;28;20045;-58
2023/04/17 01:07:42;;;;;;;72.72;48.47;;;;;;;6.92;100.00;102430.06;5052541;28;20032;-57
2023/04/17 01:10:08;;;;;;;73.82;47.33;;;;;;;6.92;100.00;102432.63;5051329;28;20029;-58
2023/04/17 01:12:33;;;;;;;69.07;46.55;;;;;;;6.92;100.00;102437.75;5051544;28;20399;-58
2023/04/17 01:14:58;;;;;;;68.90;45.72;;;;;;;6.91;100.00;102433.41;5052478;28;20024;-57
2023/04/17 01:17:27;;;;;;;63.00;44.25;;;;;;;6.90;100.00;102434.16;5051465;28;20100;-57
2023/04/17 01:19:54;;;;;;;65.80;44.20;;;;;;;6.91;100.00;102427.38;5052761;28;20025;-57
2023/04/17 01:22:20;;;;;;;70.82;45.38;;;;;;;6.91;100.00;102440.22;5051922;28;20021;-57
2023/04/17 01:24:46;;;;;;;67.85;45.33;;;;;;;6.91;100.00;102435.97;5051432;28;20110;-57
2023/04/17 01:27:14;;;;;;;63.40;43.60;;;;;;;6.88;100.00;102435.75;5052413;28;20469;-57
2023/04/17 01:29:40;;;;;;;61.55;43.15;;;;;;;6.90;100.00;102435.84;5051600;28;20488;-57
2023/04/17 01:32:06;;;;;;;62.72;41.88;;;;;;;6.89;100.00;102437.53;5052457;28;20029;-57
2023/04/17 01:34:31;;;;;;;64.15;43.95;;;;;;;6.91;100.00;102440.22;5052104;28;20104;-57
2023/04/17 01:36:57;;;;;;;62.67;42.75;;;;;;;6.91;100.00;102437.66;5051632;28;20032;-58
2023/04/17 01:39:22;;;;;;;58.95;42.05;;;;;;;6.90;100.00;102440.97;5052150;28;20123;-57
2023/04/17 01:41:47;;;;;;;66.03;42.88;;;;;;;6.90;100.00;102443.53;5052503;28;20350;-58
2023/04/17 01:44:13;;;;;;;65.05;41.38;;;;;;;6.89;100.00;102441.75;5051420;28;20027;-58
2023/04/17 01:46:38;;;;;;;60.97;41.47;;;;;;;6.88;100.00;102445.09;5055903;28;20029;-57
2023/04/17 01:49:03;;;;;;;59.38;42.55;;;;;;;6.87;100.00;102439.09;5056134;28;20248;-57
2023/04/17 01:51:28;;;;;;;57.35;41.25;;;;;;;6.88;100.00;102446.00;5055153;28;20109;-58
2023/04/17 01:53:54;;;;;;;57.13;43.03;;;;;;;6.87;100.00;102433.97;5055984;28;20476;-57
2023/04/17 01:56:19;;;;;;;63.60;40.53;;;;;;;6.86;100.00;102442.44;5055624;28;20066;-57
2023/04/17 01:58:44;;;;;;;62.72;42.25;;;;;;;6.85;100.00;102440.66;5055193;28;20083;-57
2023/04/17 02:01:10;;;;;;;61.90;41.38;;;;;;;6.83;100.00;102442.22;5055796;28;20013;-57
2023/04/17 02:03:35;;;;;;;63.08;42.90;;;;;;;6.83;100.00;102447.34;5055642;28;20036;-57
2023/04/17 02:06:01;;;;;;;59.63;41.78;;;;;;;6.83;100.00;102447.34;5054299;28;20052;-57
2023/04/17 02:08:26;;;;;;;61.35;41.80;;;;;;;6.81;100.00;102451.47;5055060;28;20025;-57
2023/04/17 02:10:52;;;;;;;60.60;41.72;;;;;;;6.79;100.00;102453.06;5055730;28;20104;-57
2023/04/17 02:13:17;;;;;;;55.78;39.95;;;;;;;6.78;100.00;102451.25;5054540;28;20028;-57
2023/04/17 02:15:43;;;;;;;55.38;40.72;;;;;;;6.78;100.00;102447.78;5055314;28;20029;-58
2023/04/17 02:18:09;;;;;;;59.33;40.88;;;;;;;6.75;100.00;102448.47;5055599;28;20036;-57
2023/04/17 02:20:36;;;;;;;57.50;40.83;;;;;;;6.74;100.00;102442.47;5054679;28;20021;-57
2023/04/17 02:23:02;;;;;;;69.57;42.10;;;;;;;6.72;100.00;102445.69;5054879;28;20489;-58
2023/04/17 02:25:28;;;;;;;61.80;41.90;;;;;;;6.73;100.00;102444.91;5054572;28;20333;-57
2023/04/17 02:27:55;;;;;;;58.85;40.58;;;;;;;6.72;100.00;102443.13;5054520;28;20028;-57
2023/04/17 02:30:24;;;;;;;64.07;41.40;;;;;;;6.72;100.00;102448.25;5054903;28;20384;-57
2023/04/17 02:32:51;;;;;;;60.95;42.75;;;;;;;6.70;100.00;102449.81;5055508;28;20028;-57
2023/04/17 02:35:18;;;;;;;59.88;41.83;;;;;;;6.70;100.00;102445.59;5054310;28;20416;-57
2023/04/17 02:37:43;;;;;;;70.13;44.20;;;;;;;6.69;100.00;102448.06;5054612;28;20029;-57
2023/04/17 02:40:09;;;;;;;60.75;42.95;;;;;;;6.70;100.00;102444.69;5054514;28;20024;-58
2023/04/17 02:42:34;;;;;;;60.00;43.53;;;;;;;6.69;100.00;102443.81;5054810;28;20048;-57
2023/04/17 02:45:00;;;;;;;65.57;45.42;;;;;;;6.70;100.00;102447.25;5054995;28;20023;-57
2023/04/17 02:47:25;;;;;;;69.20;45.65;;;;;;;6.71;100.00;102446.47;5053791;28;20091;-57
2023/04/17 02:49:50;;;;;;;67.25;44.65;;;;;;;6.70;100.00;102442.13;5055123;28;20029;-56
2023/04/17 02:52:16;;;;;;;67.43;44.90;;;;;;;6.71;100.00;102446.47;5054597;28;20017;-57
2023/04/17 02:54:41;;;;;;;67.15;43.95;;;;;;;6.70;100.00;102447.25;5054308;28;20075;-57
2023/04/17 02:57:06;;;;;;;67.57;46.30;;;;;;;6.70;100.00;102439.56;5054769;28;20039;-57
2023/04/17 02:59:31;;;;;;;73.30;46.50;;;;;;;6.69;100.00;102443.81;5054619;28;20380;-57
2023/04/17 03:01:58;;;;;;;72.35;45.55;;;;;;;6.69;100.00;102448.06;5053826;28;20021;-57
2023/04/17 03:04:24;;;;;;;64.60;42.58;;;;;;;6.68;100.00;102444.59;5054559;28;20033;-57
2023/04/17 03:06:50;;;;;;;67.03;45.15;;;;;;;6.67;100.00;102445.34;5054273;28;20025;-58
2023/04/17 03:09:17;;;;;;;65.20;45.70;;;;;;;6.66;100.00;102451.28;5053453;28;20439;-57
2023/04/17 03:11:42;;;;;;;67.32;45.47;;;;;;;6.67;100.00;102452.16;5054684;28;20376;-58
2023/04/17 03:14:07;;;;;;;67.63;45.55;;;;;;;6.69;100.00;102458.31;5054467;28;20472;-57
2023/04/17 03:16:32;;;;;;;73.72;46.15;;;;;;;6.65;100.00;102457.19;5053665;28;20491;-57
2023/04/17 03:18:58;;;;;;;73.57;47.33;;;;;;;6.63;100.00;102455.31;5054344;28;20106;-58
2023/04/17 03:21:23;;;;;;;78.05;47.55;;;;;;;6.62;100.00;102466.31;5054098;28;20480;-57
2023/04/17 03:23:48;;;;;;;72.25;47.20;;;;;;;6.61;100.00;102462.88;5053472;28;20021;-57
2023/04/17 03:26:14;;;;;;;74.18;46.92;;;;;;;6.61;100.00;102456.84;5054310;28;20027;-57
2023/04/17 03:28:39;;;;;;;72.03;46.42;;;;;;;6.58;100.00;102460.06;5053749;28;20389;-58
2023/04/17 03:31:05;;;;;;;70.78;46.85;;;;;;;6.56;100.00;102461.66;5053352;28;20045;-57
2023/04/17 03:33:30;;;;;;;73.05;46.85;;;;;;;6.54;100.00;102453.84;5053956;28;20053;-57
2023/04/17 03:35:56;;;;;;;67.70;45.63;;;;;;;6.53;100.00;102458.84;5054228;28;20048;-57
2023/04/17 03:38:21;;;;;;;73.35;44.88;;;;;;;6.54;100.00;102458.97;5052229;28;20029;-57
2023/04/17 03:40:46;;;;;;;73.13;47.35;;;;;;;6.53;100.00;102453.72;5053822;28;20025;-57
2023/04/17 03:43:11;;;;;;;68.88;45.90;;;;;;;6.53;100.00;102454.66;5053923;28;20021;-57
2023/04/17 03:45:37;;;;;;;68.47;44.05;;;;;;;6.52;100.00;102455.41;5052791;28;20488;-57
2023/04/17 03:48:02;;;;;;;65.93;45.10;;;;;;;6.53;100.00;102457.22;5054022;28;20088;-57
2023/04/17 03:50:28;;;;;;;70.80;46.72;;;;;;;6.52;100.00;102455.41;5052951;28;20021;-57
2023/04/17 03:52:53;;;;;;;69.00;46.85;;;;;;;6.53;100.00;102451.16;5053494;28;20036;-57
2023/04/17 03:55:18;;;;;;;70.32;45.78;;;;;;;6.54;100.00;102458.09;5053468;28;20029;-57
2023/04/17 03:57:44;;;;;;;78.10;46.22;;;;;;;6.50;100.00;102451.84;5053056;28;20025;-57
2023/04/17 04:00:10;;;;;;;82.25;48.63;;;;;;;6.48;100.00;102455.97;5053450;28;20094;-58
2023/04/17 04:02:35;;;;;;;90.10;50.65;;;;;;;6.44;100.00;102451.41;5053256;28;20292;-57
2023/04/17 04:05:02;;;;;;;83.28;50.80;;;;;;;6.43;100.00;102449.63;5052735;28;20079;-57
2023/04/17 04:07:27;;;;;;;84.88;50.28;;;;;;;6.42;100.00;102448.72;5052056;28;20489;-58
2023/04/17 04:09:52;;;;;;;83.05;50.45;;;;;;;6.42;100.00;102446.16;5053423;28;20051;-57
2023/04/17 04:12:17;;;;;;;84.78;48.85;;;;;;;6.41;100.00;102444.38;5052491;28;20024;-58
2023/04/17 04:14:43;;;;;;;81.00;50.08;;;;;;;6.41;100.00;102448.63;5053482;28;20044;-57
2023/04/17 04:17:08;;;;;;;83.47;49.95;;;;;;;6.39;100.00;102447.59;5053387;28;20465;-58
2023/04/17 04:19:34;;;;;;;83.90;49.60;;;;;;;6.39;100.00;102447.59;5051682;28;20017;-57
2023/04/17 04:22:00;;;;;;;81.50;52.58;;;;;;;6.38;100.00;102450.97;5053133;28;20024;-58
2023/04/17 04:24:25;;;;;;;80.50;50.08;;;;;;;6.40;100.00;102462.19;5052798;28;20439;-57
2023/04/17 04:26:50;;;;;;;84.13;50.80;;;;;;;6.38;100.00;102456.09;5052461;28;20062;-57
2023/04/17 04:29:16;;;;;;;83.88;51.83;;;;;;;6.36;100.00;102462.75;5052612;28;20056;-57
2023/04/17 04:31:45;;;;;;;81.68;50.28;;;;;;;6.34;100.00;102464.31;5052990;28;20096;-57
2023/04/17 04:34:12;;;;;;;84.78;51.78;;;;;;;6.33;100.00;102462.56;5052546;28;20021;-58
2023/04/17 04:36:40;;;;;;;86.90;51.10;;;;;;;6.32;100.00;102466.75;5052941;28;20033;-57
2023/04/17 04:39:06;;;;;;;87.53;50.97;;;;;;;6.32;100.00;102459.09;5052949;28;20437;-57
2023/04/17 04:41:32;;;;;;;94.95;54.45;;;;;;;6.33;100.00;102465.13;5051918;28;20025;-57
2023/04/17 04:44:01;;;;;;;89.85;53.70;;;;;;;6.32;100.00;102465.88;5052969;28;20095;-57
2023/04/17 04:46:27;;;;;;;94.85;52.33;;;;;;;6.31;100.00;102472.66;5052560;28;20037;-57
2023/04/17 04:48:52;;;;;;;83.88;53.38;;;;;;;6.31;100.00;102470.09;5052075;28;20119;-57
2023/04/17 04:51:18;;;;;;;89.72;53.80;;;;;;;6.31;100.00;102475.22;5052542;28;20021;-57
2023/04/17 04:53:43;;;;;;;88.90;54.20;;;;;;;6.31;100.00;102479.47;5051412;28;20021;-58
2023/04/17 04:56:09;;;;;;;93.22;54.28;;;;;;;6.31;100.00;102472.66;5052901;28;20503;-57
2023/04/17 04:58:34;;;;;;;92.70;56.55;;;;;;;6.31;100.00;102469.22;5052277;28;20029;-57
2023/04/17 05:01:00;;;;;;;97.75;55.17;;;;;;;6.30;100.00;102473.47;5051751;28;20500;-57
2023/04/17 05:03:25;;;;;;;91.28;54.28;;;;;;;6.32;100.00;102481.25;5052620;28;20480;-57
2023/04/17 05:05:50;;;;;;;93.60;56.92;;;;;;;6.33;100.00;102477.91;5052629;28;20558;-57
2023/04/17 05:08:15;;;;;;;94.35;59.47;;;;;;;6.35;100.00;102484.94;5051578;28;20029;-57
2023/04/17 05:10:41;;;;;;;91.10;55.25;;;;;;;6.37;100.00;102490.16;5052574;28;20492;-57
2023/04/17 05:13:06;;;;;;;96.32;57.10;;;;;;;6.40;100.00;102485.25;5052536;28;20021;-56
2023/04/17 05:15:32;;;;;;;92.80;57.55;;;;;;;6.40;100.00;102486.16;5051703;28;20029;-56
2023/04/17 05:17:57;;;;;;;94.65;56.92;;;;;;;6.41;100.00;102492.16;5052730;28;20427;-56
2023/04/17 05:20:22;;;;;;;89.70;55.25;;;;;;;6.44;100.00;102494.94;5055923;28;20025;-57
2023/04/17 05:22:48;;;;;;;88.78;55.58;;;;;;;6.46;100.00;102498.50;5055572;28;20480;-57
2023/04/17 05:25:15;;;;;;;94.03;56.78;;;;;;;6.48;100.00;102496.97;5056533;28;20028;-57
2023/04/17 05:27:40;;;;;;;92.28;55.75;;;;;;;6.50;100.00;102495.38;5056221;28;20047;-57
2023/04/17 05:30:06;;;;;;;91.47;55.85;;;;;;;6.50;100.00;102495.38;5055618;28;20497;-57
2023/04/17 05:32:33;;;;;;;93.90;56.00;;;;;;;6.53;100.00;102502.41;5056266;28;20040;-57
2023/04/17 05:34:59;;;;;;;91.13;55.73;;;;;;;6.56;100.00;102497.53;5056429;28;20105;-57
2023/04/17 05:37:24;;;;;;;96.63;57.95;;;;;;;6.57;100.00;102505.31;5054997;28;20351;-57
2023/04/17 05:39:50;;;;;;;94.10;54.90;;;;;;;6.56;100.00;102506.09;5056307;28;20123;-57
2023/04/17 05:42:15;;;;;;;93.30;57.13;;;;;;;6.56;100.00;102503.53;5056008;28;20017;-57
2023/04/17 05:44:40;;;;;;;87.70;53.60;;;;;;;6.57;100.00;102497.63;5055607;28;20067;-57
2023/04/17 05:47:06;;;;;;;92.07;56.33;;;;;;;6.58;100.00;102501.06;5056276;28;20566;-57
2023/04/17 05:49:31;;;;;;;90.32;57.28;;;;;;;6.59;100.00;102510.53;5055675;28;20440;-57
2023/04/17 05:51:56;;;;;;;95.50;59.00;;;;;;;6.57;100.00;102513.00;5055075;28;20025;-57
2023/04/17 05:54:22;;;;;;;98.10;57.53;;;;;;;6.58;100.00;102512.22;5055783;28;20025;-56
2023/04/17 05:56:48;;;;;;;91.38;57.03;;;;;;;6.61;100.00;102510.66;5055828;28;20029;-56
2023/04/17 05:59:13;;;;;;;90.95;57.63;;;;;;;6.59;100.00;102511.41;5055341;28;20025;-57
2023/04/17 06:01:39;;;;;;;89.55;56.80;;;;;;;6.61;100.00;102515.78;5055656;28;20025;-57
2023/04/17 06:04:04;;;;;;;98.90;57.97;;;;;;;6.59;100.00;102515.66;5055002;28;20108;-57
2023/04/17 06:06:30;;;;;;;91.65;56.70;;;;;;;6.58;100.00;102509.66;5055223;28;20029;-57
2023/04/17 06:08:55;;;;;;;88.97;55.97;;;;;;;6.59;100.00;102521.66;5055055;28;20025;-57
2023/04/17 06:11:21;;;;;;;96.57;57.58;;;;;;;6.60;100.00;102517.44;5054495;28;20021;-57
2023/04/17 06:13:47;;;;;;;95.57;58.30;;;;;;;6.59;100.00;102521.66;5055837;28;20036;-56
2023/04/17 06:16:12;;;;;;;93.18;57.08;;;;;;;6.62;100.00;102525.25;5055622;28;20029;-56
2023/04/17 06:18:37;;;;;;;94.93;58.95;;;;;;;6.63;100.00;102529.59;5054601;28;20473;-57
2023/04/17 06:21:03;;;;;;;99.07;57.13;;;;;;;6.66;100.00;102529.81;5055823;28;20460;-57
2023/04/17 06:23:28;;;;;;;100.72;59.53;;;;;;;6.68;100.00;102529.13;5054867;28;20029;-57
2023/04/17 06:25:54;;;;;;;96.05;57.60;;;;;;;6.69;100.00;102530.03;5054511;28;20025;-57
2023/04/17 06:28:19;;;;;;;99.80;59.15;;;;;;;6.69;100.00;102535.16;5055033;28;20342;-57
2023/04/17 06:30:44;;;;;;;94.45;57.28;;;;;;;6.67;100.00;102534.16;5054613;28;20104;-57
2023/04/17 06:33:10;;;;;;;100.78;58.92;;;;;;;6.67;100.00;102537.59;5054634;28;20045;-57
2023/04/17 06:35:36;;;;;;;97.15;58.38;;;;;;;6.68;100.00;102538.50;5054735;28;20037;-57
2023/04/17 06:38:02;;;;;;;95.30;59.92;;;;;;;6.69;100.00;102536.06;5054873;28;20068;-57
2023/04/17 06:40:27;;;;;;;94.32;56.72;;;;;;;6.69;100.00;102535.16;5053862;28;20056;-57
2023/04/17 06:42:52;;;;;;;95.00;56.67;;;;;;;6.70;100.00;102537.84;5055341;28;20472;-57
2023/04/17 06:45:18;;;;;;;98.25;56.97;;;;;;;6.73;100.00;102547.41;5054876;28;20422;-57
2023/04/17 06:47:45;;;;;;;89.95;56.88;;;;;;;6.73;100.00;102548.28;5054164;28;20025;-57
2023/04/17 06:50:10;;;;;;;98.35;57.75;;;;;;;6.75;100.00;102548.41;5054921;28;20075;-57
2023/04/17 06:52:35;;;;;;;92.43;57.00;;;;;;;6.78;100.00;102546.09;5054690;28;20414;-57
2023/04/17 06:55:01;;;;;;;92.43;55.65;;;;;;;6.85;100.00;102552.53;5053973;28;20025;-57
2023/04/17 06:57:26;;;;;;;85.50;56.63;;;;;;;6.90;100.00;102546.94;5054532;28;20029;-57
2023/04/17 06:59:51;;;;;;;89.35;55.47;;;;;;;6.95;100.00;102549.84;5054947;28;20079;-56
2023/04/17 07:02:17;;;;;;;88.10;56.60;;;;;;;7.00;100.00;102553.63;5053911;28;20033;-57
2023/04/17 07:04:42;;;;;;;87.97;54.90;;;;;;;7.03;100.00;102558.97;5054598;28;20033;-57
2023/04/17 07:07:07;;;;;;;84.70;53.70;;;;;;;7.02;100.00;102558.88;5054222;28;20048;-56
2023/04/17 07:09:32;;;;;;;78.93;52.38;;;;;;;7.03;100.00;102565.78;5052862;28;20071;-57
2023/04/17 07:11:58;;;;;;;82.03;52.80;;;;;;;7.01;100.00;102559.66;5054762;28;20025;-57
2023/04/17 07:14:23;;;;;;;80.57;51.47;;;;;;;7.00;100.00;102569.03;5053743;28;20465;-56
2023/04/17 07:16:49;;;;;;;79.47;53.22;;;;;;;6.99;100.00;102571.47;5054018;28;20017;-56
2023/04/17 07:19:15;;;;;;;80.75;51.65;;;;;;;7.03;100.00;102573.47;5053266;28;20056;-57
2023/04/17 07:21:40;;;;;;;86.53;53.60;;;;;;;7.09;100.00;102577.38;5053016;28;20112;-56
2023/04/17 07:24:05;;;;;;;78.88;52.92;;;;;;;7.16;100.00;102586.38;5053992;28;20025;-57
2023/04/17 07:26:31;;;;;;;80.55;52.13;;;;;;;7.23;100.00;102580.00;5054196;28;20056;-56
2023/04/17 07:28:56;;;;;;;73.68;51.78;;;;;;;7.22;100.00;102585.94;5053461;28;20435;-57
2023/04/17 07:31:21;;;;;;;78.25;52.65;;;;;;;7.20;100.00;102583.25;5054091;28;20067;-57
2023/04/17 07:33:47;;;;;;;78.90;52.92;;;;;;;7.22;100.00;102581.69;5054254;28;20082;-57
2023/04/17 07:36:12;;;;;;;81.43;53.40;;;;;;;7.23;100.00;102586.06;5053280;28;20388;-56
2023/04/17 07:38:37;;;;;;;81.07;54.35;;;;;;;7.27;100.00;102593.94;5053839;28;20440;-57
2023/04/17 07:41:03;;;;;;;80.32;52.83;;;;;;;7.34;100.00;102594.50;5054031;28;20025;-57
2023/04/17 07:43:28;;;;;;;76.78;54.08;;;;;;;7.42;100.00;102592.47;5052328;28;20051;-56
2023/04/17 07:45:54;;;;;;;78.05;52.15;;;;;;;7.45;100.00;102591.78;5053798;28;20025;-57
2023/04/17 07:48:21;;;;;;;74.70;50.60;;;;;;;7.55;100.00;102597.69;5053527;28;20037;-56
2023/04/17 07:50:49;;;;;;;67.43;47.88;;;;;;;7.66;100.00;102600.13;5053015;28;20124;-56
2023/04/17 07:53:18;;;;;;;67.18;48.22;;;;;;;7.77;100.00;102593.16;5053705;28;20036;-57
2023/04/17 07:55:44;;;;;;;69.15;48.78;;;;;;;7.76;100.00;102597.41;5053847;28;20025;-56
2023/04/17 07:58:10;;;;;;;63.25;44.75;;;;;;;7.82;100.00;102595.25;5052643;28;20439;-56
2023/04/17 08:00:40;;;;;;;65.78;45.30;;;;;;;8.01;100.00;102593.97;5052665;28;20028;-57
2023/04/17 08:03:13;;;;;;;65.35;46.63;;;;;;;8.14;100.00;102606.84;5110119;27;20182;-55
2023/04/17 08:05:39;;;;;;;67.45;47.15;;;;;;;8.11;100.00;102605.72;5089371;28;20040;-56
2023/04/17 08:08:04;;;;;;;61.42;44.80;;;;;;;8.03;100.00;102605.22;5089834;28;20052;-55
2023/04/17 08:10:30;;;;;;;63.67;45.47;;;;;;;8.01;100.00;102604.22;5089974;28;20427;-55
2023/04/17 08:12:55;;;;;;;66.13;45.67;;;;;;;7.99;100.00;102601.56;5088865;28;20038;-56
2023/04/17 08:15:20;;;;;;;63.72;45.08;;;;;;;8.10;100.00;102604.84;5089197;28;20020;-56
2023/04/17 08:17:46;;;;;;;62.50;44.28;;;;;;;8.17;100.00;102606.16;5089186;28;20031;-56
2023/04/17 08:20:12;;;;;;;58.88;42.35;;;;;;;8.09;100.00;102605.63;5089480;28;20056;-56
2023/04/17 08:22:42;;;;;;;60.13;42.17;;;;;;;8.04;100.00;102610.47;5088316;28;20039;-56
2023/04/17 08:25:08;;;;;;;62.05;45.15;;;;;;;8.19;100.00;102605.47;5089314;28;20048;-56
2023/04/17 08:27:39;;;;;;;63.63;43.47;;;;;;;8.24;100.00;102618.63;5089687;28;20021;-56
2023/04/17 08:30:07;;;;;;;53.80;40.33;;;;;;;8.35;100.00;102611.63;5090043;28;20424;-55
2023/04/17 08:32:40;;;;;;;61.35;41.95;;;;;;;8.68;100.00;102612.16;5088991;28;20028;-56
2023/04/17 08:35:10;;;;;;;60.60;41.80;;;;;;;8.82;100.00;102613.94;5089824;28;20046;-56
2023/04/17 08:37:35;;;;;;;54.67;40.22;;;;;;;9.11;100.00;102620.06;5088946;28;20523;-55
2023/04/17 08:40:03;;;;;;;57.33;40.83;;;;;;;9.19;100.00;102615.41;5089302;28;20054;-56
2023/04/17 08:42:29;;;;;;;;;;;;;;;9.44;100.00;102614.38;5089948;28;20029;-56
2023/04/17 08:44:59;;;;;;;53.88;39.88;;;;;;;9.39;100.00;102619.25;5089559;28;19916;-56
2023/04/17 08:47:25;;;;;;;64.05;42.22;;;;;;;9.55;100.00;102616.84;5088545;28;20488;-56
2023/04/17 08:49:50;;;;;;;55.42;40.80;;;;;;;9.52;100.00;102619.22;5089782;28;20028;-55
2023/04/17 08:52:15;;;;;;;55.70;38.85;;;;;;;9.43;100.00;102613.50;5089372;28;20028;-56
2023/04/17 08:54:41;;;;;;;56.35;39.42;;;;;;;9.36;100.00;102619.03;5088973;28;20541;-56
2023/04/17 08:57:06;;;;;;;57.65;39.78;;;;;;;9.40;100.00;102626.19;5089580;28;20028;-56
2023/04/17 08:59:32;;;;;;;56.42;39.78;;;;;;;9.50;100.00;102623.41;5089182;28;20025;-55
2023/04/17 09:02:06;;;;;;;55.97;39.40;;;;;;;9.53;100.00;102623.56;5098585;28;20047;-56
2023/04/17 09:04:38;;;;;;;52.63;38.90;;;;;;;9.38;100.00;102620.03;5109626;28;20020;-55
2023/04/17 09:07:05;;;;;;;54.35;39.60;;;;;;;9.19;100.00;102616.31;5108691;28;20028;-56
2023/04/17 09:09:54;;;;;;;55.33;40.60;;;;;;;9.19;100.00;102615.41;5109144;28;20493;-56
2023/04/17 09:12:21;;;;;;;54.65;41.53;;;;;;;9.31;100.00;102620.44;5108387;28;20024;-56
2023/04/17 09:14:47;;;;;;;53.92;41.28;;;;;;;9.58;100.00;102617.81;5093323;28;20039;-56
2023/04/17 09:17:17;;;;;;;51.97;37.85;;;;;;;9.76;100.00;102618.06;5095508;28;20024;-56
2023/04/17 09:20:13;;;;;;;60.10;40.78;;;;;;;10.01;100.00;102623.91;5094816;28;20081;-55
2023/04/17 09:22:39;;;;;;;49.83;38.65;;;;;;;10.02;100.00;102637.69;5076704;28;20040;-56
2023/04/17 09:25:34;;;;;;;51.15;38.35;;;;;;;10.19;100.00;102626.72;5094988;28;20035;-56
2023/04/17 09:28:10;;;;;;;54.42;38.90;;;;;;;10.39;100.00;102624.44;5077164;28;20028;-56
2023/04/17 09:30:37;;;;;;;53.65;38.47;;;;;;;10.54;100.00;102620.19;5095253;28;20072;-56
2023/04/17 09:33:03;;;;;;;47.53;36.80;;;;;;;10.65;100.00;102614.78;5095451;28;20028;-56
2023/04/17 09:35:29;;;;;;;51.13;37.22;;;;;;;10.88;100.00;102626.41;5094324;28;20098;-56
2023/04/17 09:37:58;;;;;;;49.38;37.78;;;;;;;11.01;100.00;102623.75;5094985;28;20107;-56
2023/04/17 09:40:24;;;;;;;46.45;36.15;;;;;;;11.14;100.00;102617.56;5095346;28;20383;-56
2023/04/17 09:42:55;;;;;;;46.67;36.17;;;;;;;11.04;98.46;102618.72;5094592;28;20024;-56
2023/04/17 09:45:23;;;;;;;47.88;35.80;;;;;;;11.10;99.35;102620.75;5094971;28;20368;-56
2023/04/17 09:47:49;;;;;;;51.67;36.22;;;;;;;11.04;96.75;102625.59;5094955;28;20093;-56
2023/04/17 09:50:17;;;;;;;45.85;35.72;;;;;;;11.00;95.26;102621.94;5094209;28;20578;-56
2023/04/17 09:52:42;;;;;;;45.67;35.80;;;;;;;11.31;95.14;102618.50;5094960;28;20046;-56
2023/04/17 09:55:09;;;;;;;42.88;34.75;;;;;;;11.43;93.37;102614.81;5095113;28;20376;-56
2023/04/17 09:57:37;;;;;;;43.17;33.90;;;;;;;12.16;93.84;102617.88;5094098;28;20030;-56
2023/04/17 10:00:04;;;;;;;46.67;34.20;;;;;;;12.74;88.81;102616.41;5095003;28;20020;-56
2023/04/17 10:02:31;;;;;;;43.67;33.17;;;;;;;13.18;86.42;102620.28;5094409;28;20044;-56
2023/04/17 10:04:56;;;;;;;44.72;33.53;;;;;;;13.11;83.37;102617.31;5094184;28;20020;-56
2023/04/17 10:07:22;;;;;;;44.97;32.78;;;;;;;13.36;83.64;102619.34;5094783;28;20386;-56
2023/04/17 10:09:47;;;;;;;42.95;33.83;;;;;;;13.31;83.72;102615.66;5095002;28;20066;-56
2023/04/17 10:12:16;;;;;;;41.05;31.48;;;;;;;13.15;84.90;102617.50;5094110;28;20028;-56
2023/04/17 10:14:48;;;;;;;42.60;32.83;;;;;;;12.88;82.80;102611.91;5094634;28;20367;-56
2023/04/17 10:17:35;;;;;;;43.53;32.25;;;;;;;12.94;83.53;102616.50;5093560;28;20028;-57
2023/04/17 10:20:19;;;;;;;;;;;;;;;13.53;89.05;102601.13;5095132;28;20030;-56
2023/04/17 10:22:47;;;;;;;41.85;31.65;;;;;;;13.92;78.41;102608.94;5094032;28;20334;-56
2023/04/17 10:25:13;;;;;;;41.05;31.67;;;;;;;13.75;75.87;102605.59;5092723;28;20020;-56
2023/04/17 10:27:41;;;;;;;40.30;30.75;;;;;;;13.50;75.48;102607.06;5094124;28;20035;-57
2023/04/17 10:30:09;;;;;;;45.00;33.13;;;;;;;13.54;78.67;102605.50;5094632;28;20069;-57
2023/04/17 10:32:35;;;;;;;42.65;32.13;;;;;;;14.06;79.43;102604.34;5093564;28;20036;-56
2023/04/17 10:35:22;;;;;;;42.35;31.58;;;;;;;14.39;75.42;102607.50;5094369;28;20024;-57
2023/04/17 10:37:47;;;;;;;38.83;29.83;;;;;;;14.19;73.45;102600.56;5079197;28;20047;-57
2023/04/17 10:40:19;;;;;;;35.80;27.85;;;;;;;14.16;72.12;102602.22;5093177;28;20308;-56
2023/04/17 10:43:13;;;;;;;36.10;28.13;;;;;;;14.08;74.10;102603.59;5094220;28;20112;-56
2023/04/17 10:46:04;;;;;;;39.50;29.38;;;;;;;14.35;77.56;102608.19;5093271;28;20040;-57
2023/04/17 10:48:35;;;;;;;37.13;29.58;;;;;;;14.78;73.15;102607.41;5093724;28;20027;-56
2023/04/17 10:51:22;;;;;;;33.97;28.40;;;;;;;15.06;73.44;102605.91;5094185;28;20024;-56
2023/04/17 10:53:51;;;;;;;38.13;28.67;;;;;;;15.12;68.53;102598.34;5092927;28;20478;-56
2023/04/17 10:56:22;;;;;;;34.08;27.52;;;;;;;15.34;67.19;102599.19;5093665;28;20035;-57
2023/04/17 10:58:57;;;;;;;36.45;28.27;;;;;;;15.35;70.49;102590.56;5093856;28;20064;-56
2023/04/17 11:01:43;;;;;;;35.78;28.83;;;;;;;15.03;69.66;102585.03;5091673;28;20400;-56
2023/04/17 11:04:10;;;;;;;34.40;27.60;;;;;;;14.82;68.06;102585.94;5079141;28;20487;-56
2023/04/17 11:06:38;;;;;;;32.67;26.60;;;;;;;14.80;68.51;102590.19;5092475;28;20177;-56
2023/04/17 11:09:07;;;;;;;36.00;27.08;;;;;;;14.87;66.34;102588.72;5092683;28;20392;-56